Clara City, Minnesota
Current Conditions -  °F | °C
As of 10:54 AM on Thursday 30 Oct 2014 (Local Time) from KMVE Reporting Station
Broken Clouds Broken Clouds  
Wind Chill: 39°   Ceiling: 7500
Heat Index: 43°   Visibility: 10mi
Dew Point: 43°   Wind: 6mph
Humidity: 100%   Direction: 20°NNE
Pressure: 30.11"   Gusts: NA
Location:  44.95°N, 95.37°W
Report Text: KMVE 301554Z AUTO 02005KT 10SM BKN075 06/06 A3011 RMK AO2
Loading
Personal Weather Stations






























Interactive Weather Map
Tropical Storm Tracking
New forecast layout! Learn more

10-Day Weather Forecast

Advertisements
Track Severe Weather on mobile